Time;durP1;ratioP1;P1;durP2;ratioP2;P2;SDS_P1;SDS_P2;PMS_P1;PMS_P2;Temp;Humidity;BMP_temperature;BMP_pressure;BME280_temperature;BME280_humidity;BME280_pressure;Samples;Min_cycle;Max_cycle;Signal;HPM_P1;HPM_P2
2023/05/05 00:00:53;;;;;;;;;;;;;;;10.14;100.00;100042.44;5051279;28;825;-57
2023/05/05 00:03:23;;;;;;;;;;;;;;;10.35;100.00;100041.69;5051171;28;819;-57
2023/05/05 00:05:51;;;;;;;;;;;;;;;10.44;100.00;100044.03;5052149;28;759;-57
2023/05/05 00:08:19;;;;;;;;;;;;;;;10.55;100.00;100055.88;5051562;28;963;-57
2023/05/05 00:10:47;;;;;;;;;;;;;;;10.64;100.00;100059.00;5051576;28;1893;-57
2023/05/05 00:13:14;;;;;;;;;;;;;;;10.72;100.00;100054.28;5051107;28;852;-57
2023/05/05 00:15:42;;;;;;;;;;;;;;;10.81;100.00;100058.19;5051112;28;854;-58
2023/05/05 00:18:10;;;;;;;;;;;;;;;10.87;100.00;100053.06;5051068;28;813;-57
2023/05/05 00:20:38;;;;;;;;;;;;;;;10.89;100.00;100049.91;5051100;28;863;-57
2023/05/05 00:23:05;;;;;;;;;;;;;;;10.88;100.00;100049.13;5051029;28;860;-57
2023/05/05 00:25:32;;;;;;;;;;;;;;;10.89;100.00;100047.13;5050992;28;822;-57
2023/05/05 00:28:00;;;;;;;;;;;;;;;10.89;100.00;100047.13;5050998;28;830;-57
2023/05/05 00:30:27;;;;;;;;;;;;;;;10.89;100.00;100044.38;5050975;28;1913;-57
2023/05/05 00:32:55;;;;;;;;;;;;;;;10.82;100.00;100048.72;5050979;28;878;-57
2023/05/05 00:35:22;;;;;;;;;;;;;;;10.63;100.00;100046.41;5050968;28;802;-57
2023/05/05 00:37:49;;;;;;;;;;;;;;;10.54;100.00;100043.22;5050881;28;799;-57
2023/05/05 00:40:17;;;;;;;;;;;;;;;10.49;100.00;100046.41;5050952;28;834;-57
2023/05/05 00:42:45;;;;;;;;;;;;;;;10.37;100.00;100039.28;5050915;28;827;-57
2023/05/05 00:45:14;;;;;;;;;;;;;;;10.28;100.00;100038.88;5050997;28;818;-57
2023/05/05 00:47:45;;;;;;;;;;;;;;;10.17;100.00;100034.13;5050772;28;850;-57
2023/05/05 00:50:19;;;;;;;;;;;;;;;10.10;100.00;100036.91;5050721;28;1973;-57
2023/05/05 00:52:46;;;;;;;;;;;;;;;10.08;100.00;100027.44;5051086;28;814;-57
2023/05/05 00:55:12;;;;;;;;;;;;;;;10.10;100.00;100023.09;5051892;28;819;-57
2023/05/05 00:57:39;;;;;;;;;;;;;;;10.01;100.00;100025.47;5054542;28;893;-57
2023/05/05 01:00:08;;;;;;;;;;;;;;;9.92;100.00;100014.81;5054577;28;909;-57
2023/05/05 01:02:35;;;;;;;;;;;;;;;10.02;100.00;100013.22;5052927;28;1180;-57
2023/05/05 01:05:02;;;;;;;;;;;;;;;10.32;100.00;100012.06;5054157;28;803;-57
2023/05/05 01:07:39;;;;;;;;;;;;;;;10.75;100.00;100009.22;5054199;28;857;-57
2023/05/05 01:10:06;;;;;;;;;;;;;;;10.93;100.00;100007.22;5054039;28;1890;-57
2023/05/05 01:12:50;;;;;;;;;;;;;;;10.95;100.00;100006.81;5054042;28;865;-57
2023/05/05 01:15:42;;;;;;;;;;;;;;;11.14;100.00;100005.59;5053742;28;1286;-57
2023/05/05 01:18:20;;;;;;;;;;;;;;;11.33;100.00;100002.31;5052236;28;2006;-57
2023/05/05 01:20:52;;;;;;;;;;;;;;;11.27;100.00;99979.03;5052635;28;933;-57
2023/05/05 01:23:32;;;;;;;;;;;;;;;11.36;100.00;99993.22;5053735;28;933;-57
2023/05/05 01:26:17;;;;;;;;;;;;;;;11.36;100.00;99990.44;5054052;28;822;-57
2023/05/05 01:29:02;;;;;;;;;;;;;;;11.38;100.00;99979.75;5053661;28;1961;-57
2023/05/05 01:31:50;;;;;;;;;;;;;;;11.43;100.00;99975.78;5053682;28;807;-57
2023/05/05 01:34:27;;;;;;;;;;;;;;;11.47;100.00;99973.78;5053626;28;834;-57
2023/05/05 01:37:04;;;;;;;;;;;;;;;11.56;100.00;99979.66;5053581;28;849;-57
2023/05/05 01:39:32;;;;;;;;;;;;;;;11.63;100.00;99974.09;5053568;28;826;-57
2023/05/05 01:42:03;;;;;;;;;;;;;;;11.66;100.00;99972.47;5053641;28;838;-57
2023/05/05 01:44:32;;;;;;;;;;;;;;;11.63;100.00;99962.22;5053443;28;851;-57
2023/05/05 01:47:00;;;;;;;;;;;;;;;11.59;100.00;99967.78;5053842;28;814;-57
2023/05/05 01:49:27;;;;;;;;;;;;;;;11.62;100.00;99960.63;5053545;28;1951;-57
2023/05/05 01:51:56;;;;;;;;;;;;;;;11.62;100.00;99963.41;5053582;28;830;-57
2023/05/05 01:54:24;;;;;;;;;;;;;;;11.62;100.00;99960.63;5053283;28;886;-57
2023/05/05 01:56:53;;;;;;;;;;;;;;;11.65;100.00;99955.09;5053189;28;861;-57
2023/05/05 01:59:21;;;;;;;;;;;;;;;11.60;100.00;99968.56;5053162;28;791;-57
2023/05/05 02:01:49;;;;;;;;;;;;;;;11.59;100.00;99956.69;5053129;28;873;-57
2023/05/05 02:04:21;;;;;;;;;;;;;;;11.63;100.00;99951.16;5053016;28;854;-57
2023/05/05 02:06:51;;;;;;;;;;;;;;;11.62;100.00;99947.56;5052764;28;853;-57
2023/05/05 02:09:19;;;;;;;;;;;;;;;11.60;100.00;99952.72;5053233;28;1890;-57
2023/05/05 02:11:47;;;;;;;;;;;;;;;11.60;100.00;99957.47;5051697;28;861;-56
2023/05/05 02:14:15;;;;;;;;;;;;;;;11.61;100.00;99962.63;5052742;28;1280;-57
2023/05/05 02:16:43;;;;;;;;;;;;;;;11.58;100.00;99957.09;5052752;28;815;-57
2023/05/05 02:19:11;;;;;;;;;;;;;;;11.58;100.00;99962.63;5052795;28;826;-57
2023/05/05 02:21:40;;;;;;;;;;;;;;;11.59;100.00;99961.47;5053506;28;831;-57
2023/05/05 02:24:07;;;;;;;;;;;;;;;11.54;100.00;99961.88;5052862;28;827;-58
2023/05/05 02:26:37;;;;;;;;;;;;;;;11.58;100.00;99960.66;5052720;28;851;-58
2023/05/05 02:29:08;;;;;;;;;;;;;;;11.60;100.00;99961.03;5052772;28;1964;-57
2023/05/05 02:31:44;;;;;;;;;;;;;;;11.54;100.00;99953.56;5052574;28;884;-58
2023/05/05 02:34:20;;;;;;;;;;;;;;;11.59;100.00;99953.16;5052498;28;897;-57
2023/05/05 02:36:50;;;;;;;;;;;;;;;11.54;100.00;99946.06;5052441;28;835;-58
2023/05/05 02:39:24;;;;;;;;;;;;;;;11.50;100.00;99937.00;5052373;28;815;-57
2023/05/05 02:41:53;;;;;;;;;;;;;;;11.48;100.00;99935.81;5052343;28;827;-57
2023/05/05 02:44:22;;;;;;;;;;;;;;;11.46;100.00;99950.06;5052338;28;885;-57
2023/05/05 02:46:50;;;;;;;;;;;;;;;11.45;100.00;99935.44;5052180;28;815;-57
2023/05/05 02:49:17;;;;;;;;;;;;;;;11.49;100.00;99934.63;5052546;28;1878;-57
2023/05/05 02:51:44;;;;;;;;;;;;;;;11.53;100.00;99936.19;5052027;28;799;-57
2023/05/05 02:54:11;;;;;;;;;;;;;;;11.53;100.00;99946.47;5052794;28;814;-57
2023/05/05 02:56:43;;;;;;;;;;;;;;;11.58;100.00;99946.81;5052241;28;877;-57
2023/05/05 02:59:14;;;;;;;;;;;;;;;11.63;100.00;99946.41;5052067;28;862;-57
2023/05/05 03:01:47;;;;;;;;;;;;;;;11.63;100.00;99945.63;5052046;28;821;-57
2023/05/05 03:04:24;;;;;;;;;;;;;;;11.64;100.00;99936.88;5051968;28;841;-57
2023/05/05 03:06:53;;;;;;;;;;;;;;;11.67;100.00;99946.38;5051919;28;822;-57
2023/05/05 03:09:26;;;;;;;;;;;;;;;11.68;100.00;99936.09;5052208;28;1956;-58
2023/05/05 03:12:02;;;;;;;;;;;;;;;11.67;100.00;99921.47;5051844;28;838;-57
2023/05/05 03:14:33;;;;;;;;;;;;;;;11.72;100.00;99936.84;5051774;28;1446;-57
2023/05/05 03:17:01;;;;;;;;;;;;;;;11.72;100.00;99926.56;5051683;28;810;-57
2023/05/05 03:19:29;;;;;;;;;;;;;;;11.75;100.00;99936.03;5051183;28;862;-57
2023/05/05 03:21:56;;;;;;;;;;;;;;;11.79;100.00;99932.03;5051593;28;799;-57
2023/05/05 03:24:23;;;;;;;;;;;;;;;11.87;100.00;99941.06;5051686;28;872;-57
2023/05/05 03:26:52;;;;;;;;;;;;;;;11.84;100.00;99939.91;5051567;28;869;-57
2023/05/05 03:29:19;;;;;;;;;;;;;;;11.87;100.00;99945.84;5050283;28;1971;-57
2023/05/05 03:31:46;;;;;;;;;;;;;;;11.88;100.00;99945.44;5051538;28;870;-57
2023/05/05 03:34:13;;;;;;;;;;;;;;;11.91;100.00;99944.63;5051628;28;846;-57
2023/05/05 03:36:40;;;;;;;;;;;;;;;11.95;100.00;99956.47;5051479;28;877;-57
2023/05/05 03:39:07;;;;;;;;;;;;;;;11.99;100.00;99948.13;5051486;28;913;-58
2023/05/05 03:41:34;;;;;;;;;;;;;;;12.00;100.00;99944.16;5051723;28;856;-57
2023/05/05 03:44:01;;;;;;;;;;;;;;;11.99;100.00;99959.19;5051445;28;787;-57
2023/05/05 03:46:28;;;;;;;;;;;;;;;11.99;100.00;99953.66;5051424;28;862;-58
2023/05/05 03:48:58;;;;;;;;;;;;;;;12.00;100.00;99956.03;5049959;28;1987;-57
2023/05/05 03:51:25;;;;;;;;;;;;;;;11.99;100.00;99965.56;5051269;28;873;-57
2023/05/05 03:53:52;;;;;;;;;;;;;;;12.01;100.00;99959.56;5051321;28;794;-57
2023/05/05 03:56:20;;;;;;;;;;;;;;;12.03;100.00;99960.78;5051652;28;802;-57
2023/05/05 03:58:47;;;;;;;;;;;;;;;12.03;100.00;99962.72;5051283;28;811;-57
2023/05/05 04:01:13;;;;;;;;;;;;;;;12.02;100.00;99963.94;5050030;28;1303;-57
2023/05/05 04:03:41;;;;;;;;;;;;;;;12.08;100.00;99976.16;5051165;28;916;-57
2023/05/05 04:06:08;;;;;;;;;;;;;;;12.14;100.00;99976.50;5049990;28;1271;-57
2023/05/05 04:08:35;;;;;;;;;;;;;;;12.16;100.00;99976.88;5051324;28;906;-56
2023/05/05 04:11:02;;;;;;;;;;;;;;;12.21;100.00;99976.44;5051114;28;1886;-57
2023/05/05 04:13:30;;;;;;;;;;;;;;;12.31;100.00;99983.88;5050942;28;1159;-57
2023/05/05 04:15:58;;;;;;;;;;;;;;;12.31;100.00;99975.56;5051151;28;814;-57
2023/05/05 04:18:25;;;;;;;;;;;;;;;12.39;100.00;99977.06;5051049;28;928;-56
2023/05/05 04:20:53;;;;;;;;;;;;;;;12.53;100.00;99978.91;5050960;28;854;-57
2023/05/05 04:23:20;;;;;;;;;;;;;;;12.67;100.00;99977.97;5051108;28;865;-57
2023/05/05 04:25:47;;;;;;;;;;;;;;;12.72;100.00;99962.88;5050976;28;1058;-57
2023/05/05 04:28:14;;;;;;;;;;;;;;;12.85;100.00;99947.28;5051029;28;799;-57
2023/05/05 04:30:41;;;;;;;;;;;;;;;12.94;100.00;99949.53;5054359;28;1975;-57
2023/05/05 04:33:08;;;;;;;;;;;;;;;13.04;100.00;99965.28;5053487;28;902;-56
2023/05/05 04:35:35;;;;;;;;;;;;;;;13.10;100.00;99965.59;5054762;28;893;-57
2023/05/05 04:38:02;;;;;;;;;;;;;;;13.19;100.00;99965.88;5054709;28;874;-56
2023/05/05 04:40:29;;;;;;;;;;;;;;;13.30;100.00;99957.44;5054599;28;807;-57
2023/05/05 04:42:59;;;;;;;;;;;;;;;13.36;100.00;99958.56;5054742;28;866;-57
2023/05/05 04:45:26;;;;;;;;;;;;;;;13.49;100.00;99954.00;5054777;28;874;-58
2023/05/05 04:47:53;;;;;;;;;;;;;;;13.61;100.00;99952.63;5054469;28;878;-57
2023/05/05 04:50:19;;;;;;;;;;;;;;;13.59;100.00;99958.63;5054673;28;1953;-57
2023/05/05 04:52:46;;;;;;;;;;;;;;;13.57;100.00;99963.00;5054488;28;818;-55
2023/05/05 04:55:13;;;;;;;;;;;;;;;13.62;100.00;99957.75;5054423;28;849;-57
2023/05/05 04:57:41;;;;;;;;;;;;;;;13.65;100.00;99956.91;5054352;28;818;-57
2023/05/05 05:00:07;;;;;;;;;;;;;;;13.67;100.00;99956.50;5054344;28;826;-57
2023/05/05 05:02:34;;;;;;;;;;;;;;;13.72;100.00;99961.59;5054490;28;794;-57
2023/05/05 05:05:01;;;;;;;;;;;;;;;13.78;100.00;99961.88;5054235;28;811;-57
2023/05/05 05:07:28;;;;;;;;;;;;;;;13.80;100.00;99945.59;5054178;28;826;-57
2023/05/05 05:09:55;;;;;;;;;;;;;;;13.84;100.00;99961.00;5054437;28;1890;-56
2023/05/05 05:12:22;;;;;;;;;;;;;;;13.92;100.00;99953.34;5054074;28;806;-58
2023/05/05 05:14:50;;;;;;;;;;;;;;;14.02;100.00;99957.16;5053821;28;1318;-57
2023/05/05 05:17:18;;;;;;;;;;;;;;;14.07;100.00;99951.88;5054005;28;897;-57
2023/05/05 05:19:45;;;;;;;;;;;;;;;14.20;100.00;99965.19;5053838;28;802;-57
2023/05/05 05:22:11;;;;;;;;;;;;;;;14.24;100.00;99965.91;5053875;28;861;-57
2023/05/05 05:24:38;;;;;;;;;;;;;;;14.25;100.00;99967.47;5054055;28;791;-57
2023/05/05 05:27:06;;;;;;;;;;;;;;;14.12;100.00;99972.84;5053774;28;877;-57
2023/05/05 05:29:33;;;;;;;;;;;;;;;14.36;100.00;99968.09;5052367;28;1906;-55
2023/05/05 05:31:59;;;;;;;;;;;;;;;15.01;100.00;99978.03;5053737;28;865;-56
2023/05/05 05:34:26;;;;;;;;;;;;;;;15.85;100.00;99978.59;5053718;28;830;-57
2023/05/05 05:36:53;;;;;;;;;;;;;;;15.81;100.00;99963.94;5053807;28;858;-57
2023/05/05 05:39:21;;;;;;;;;;;;;;;15.90;100.00;99980.88;5053536;28;849;-57
2023/05/05 05:41:47;;;;;;;;;;;;;;;16.09;100.00;99977.22;5052841;28;862;-56
2023/05/05 05:44:14;;;;;;;;;;;;;;;16.49;100.00;99990.94;5053468;28;878;-56
2023/05/05 05:46:41;;;;;;;;;;;;;;;16.44;100.00;99990.69;5052117;28;846;-56
2023/05/05 05:49:08;;;;;;;;;;;;;;;16.15;100.00;99990.63;5053349;28;1949;-56
2023/05/05 05:51:35;;;;;;;;;;;;;;;16.15;100.00;99996.97;5053539;28;843;-58
2023/05/05 05:54:02;;;;;;;;;;;;;;;15.89;100.00;99998.81;5053250;28;847;-57
2023/05/05 05:56:29;;;;;;;;;;;;;;;15.81;100.00;100000.19;5053242;28;799;-56
2023/05/05 05:58:56;;;;;;;;;;;;;;;15.51;100.00;100002.00;5053203;28;889;-57
2023/05/05 06:01:23;;;;;;;;;;;;;;;15.61;100.00;100003.00;5053090;28;877;-57
2023/05/05 06:03:50;;;;;;;;;;;;;;;15.96;100.00;100003.41;5053126;28;895;-57
2023/05/05 06:06:17;;;;;;;;;;;;;;;16.33;100.00;100005.69;5053017;28;897;-57
2023/05/05 06:08:44;;;;;;;;;;;;;;;16.32;100.00;100000.53;5053209;28;1024;-56
2023/05/05 06:11:11;;;;;;;;;;;;;;;16.11;100.00;99999.09;5051580;28;1889;-59
2023/05/05 06:13:37;;;;;;;;;;;;;;;16.22;100.00;100009.97;5052810;28;1252;-56
2023/05/05 06:16:05;;;;;;;;;;;;;;;16.48;100.00;100011.69;5053006;28;862;-58
2023/05/05 06:18:32;;;;;;;;;;;;;;;16.58;100.00;100021.00;5051463;28;843;-57
2023/05/05 06:20:59;;;;;;;;;;;;;;;16.81;100.00;100027.63;5052728;28;862;-56
2023/05/05 06:23:26;;;;;;;;;;;;;;;17.09;100.00;100031.63;5052705;28;870;-56
2023/05/05 06:25:54;;;;;;;;;;;;;;;17.46;100.00;100032.97;5052647;28;839;-56
2023/05/05 06:28:21;;;;;;;;;;;;;;;18.34;100.00;100039.03;5052641;28;861;-56
2023/05/05 06:30:48;;;;;;;;;;;;;;;18.68;100.00;100047.91;5052457;28;1972;-57
2023/05/05 06:33:15;;;;;;;;;;;;;;;18.98;100.00;100044.47;5052537;28;819;-56
2023/05/05 06:35:42;;;;;;;;;;;;;;;20.04;100.00;100056.97;5052754;28;886;-55
2023/05/05 06:38:09;;;;;;;;;;;;;;;18.70;100.00;100046.22;5052378;28;827;-56
2023/05/05 06:40:36;;;;;;;;;;;;;;;17.32;100.00;100055.72;5052417;28;834;-56
2023/05/05 06:43:03;;;;;;;;;;;;;;;16.44;100.00;100066.78;5052324;28;893;-56
2023/05/05 06:45:31;;;;;;;;;;;;;;;16.40;100.00;100065.31;5052553;28;841;-56
2023/05/05 06:47:57;;;;;;;;;;;;;;;16.74;100.00;100071.19;5052157;28;932;-56
2023/05/05 06:50:24;;;;;;;;;;;;;;;16.90;100.00;100061.28;5052144;28;1955;-56
2023/05/05 06:52:51;;;;;;;;;;;;;;;17.01;100.00;100067.34;5051236;28;886;-56
2023/05/05 06:55:18;;;;;;;;;;;;;;;16.78;100.00;100050.81;5052170;28;889;-56
2023/05/05 06:57:46;;;;;;;;;;;;;;;16.16;100.00;100071.06;5052039;28;861;-55
2023/05/05 07:00:13;;;;;;;;;;;;;;;15.95;100.00;100066.75;5052340;28;866;-55
2023/05/05 07:02:40;;;;;;;;;;;;;;;16.42;100.00;100076.81;5052604;28;858;-55
2023/05/05 07:05:08;;;;;;;;;;;;;;;16.30;100.00;100065.16;5051948;28;862;-56
2023/05/05 07:07:35;;;;;;;;;;;;;;;16.83;100.00;100058.66;5051903;28;1030;-56
2023/05/05 07:10:02;;;;;;;;;;;;;;;18.21;100.00;100062.66;5052235;28;1959;-55
2023/05/05 07:12:32;;;;;;;;;;;;;;;17.84;100.00;100065.03;5052468;28;849;-54
2023/05/05 07:14:59;;;;;;;;;;;;;;;17.68;100.00;100071.44;5051573;28;1407;-56
2023/05/05 07:17:26;;;;;;;;;;;;;;;18.55;100.00;100073.16;5051734;28;855;-57
2023/05/05 07:19:53;;;;;;;;;;;;;;;19.35;100.00;100081.19;5051681;28;871;-56
2023/05/05 07:22:21;;;;;;;;;;;;;;;20.30;100.00;100090.41;5051741;28;896;-56
2023/05/05 07:24:48;;;;;;;;;;;;;;;20.97;100.00;100088.84;5051686;28;871;-56
2023/05/05 07:27:15;;;;;;;;;;;;;;;21.33;100.00;100087.28;5051681;28;826;-56
2023/05/05 07:29:43;;;;;;;;;;;;;;;19.83;100.00;100086.63;5051547;28;1933;-56
2023/05/05 07:32:10;;;;;;;;;;;;;;;18.38;100.00;100089.28;5051612;28;826;-57
2023/05/05 07:34:39;;;;;;;;;;;;;;;17.43;100.00;100102.91;5051611;28;854;-55
2023/05/05 07:37:06;;;;;;;;;;;;;;;17.12;100.00;100103.38;5051506;28;917;-56
2023/05/05 07:39:33;;;;;;;;;;;;;;;17.14;100.00;100103.72;5051509;28;806;-56
2023/05/05 07:42:00;;;;;;;;;;;;;;;19.11;100.00;100080.06;5051440;28;806;-56
2023/05/05 07:44:27;;;;;;;;;;;;;;;20.53;98.89;100091.88;5051406;28;940;-56
2023/05/05 07:46:54;;;;;;;;;;;;;;;21.61;94.68;100086.03;5051320;28;834;-56
2023/05/05 07:49:21;;;;;;;;;;;;;;;21.38;100.00;100078.22;5051290;28;1914;-57
2023/05/05 07:51:49;;;;;;;;;;;;;;;19.93;94.77;100081.84;5051421;28;807;-57
2023/05/05 07:54:16;;;;;;;;;;;;;;;18.76;100.00;100103.22;5051648;28;834;-56
2023/05/05 07:56:43;;;;;;;;;;;;;;;17.90;100.00;100111.56;5051324;28;851;-56
2023/05/05 07:59:10;;;;;;;;;;;;;;;18.76;100.00;100096.84;5051314;28;842;-57
2023/05/05 08:01:38;;;;;;;;;;;;;;;20.25;97.97;100099.44;5051278;28;849;-56
2023/05/05 08:04:05;;;;;;;;;;;;;;;20.98;91.84;100088.38;5052198;28;795;-56
2023/05/05 08:06:32;;;;;;;;;;;;;;;21.68;89.47;100092.56;5055363;28;818;-56
2023/05/05 08:09:00;;;;;;;;;;;;;;;22.77;99.58;100084.88;5055516;28;899;-57
2023/05/05 08:11:27;;;;;;;;;;;;;;;24.46;88.89;100075.81;5055259;28;881;-56
2023/05/05 08:13:54;;;;;;;;;;;;;;;24.36;92.19;100080.78;5054873;28;1396;-57
2023/05/05 08:28:31;;;;;;;;;;;;;;;20.91;80.42;100060.59;5055283;28;620;-58
2023/05/05 08:30:58;;;;;;;;;;;;;;;20.66;88.74;100063.72;5054822;28;1978;-56
2023/05/05 08:33:24;;;;;;;;;;;;;;;20.44;83.66;100070.19;5054912;28;818;-56
2023/05/05 08:35:51;;;;;;;;;;;;;;;20.61;79.44;100073.50;5054842;28;869;-56
2023/05/05 08:38:18;;;;;;;;;;;;;;;20.37;85.35;100060.00;5054727;28;821;-56
2023/05/05 08:40:45;;;;;;;;;;;;;;;20.83;85.35;100064.97;5054727;28;829;-56
2023/05/05 08:43:11;;;;;;;;;;;;;;;21.96;88.54;100062.31;5054870;28;873;-56
2023/05/05 08:45:41;;;;;;;;;;;;;;;22.74;90.75;100077.38;5054454;28;890;-56
2023/05/05 08:48:09;;;;;;;;;;;;;;;21.97;77.46;100067.44;5054581;28;795;-56
2023/05/05 08:50:38;;;;;;;;;;;;;;;21.86;80.36;100069.22;5054506;28;1890;-56
2023/05/05 08:53:18;;;;;;;;;;;;;;;21.79;82.72;100073.16;5054414;28;866;-56
2023/05/05 08:55:54;;;;;;;;;;;;;;;22.06;75.87;100068.66;5054697;28;842;-56
2023/05/05 08:58:24;;;;;;;;;;;;;;;21.54;78.94;100069.47;5054389;28;803;-56
2023/05/05 09:00:51;;;;;;;;;;;;;;;21.54;77.57;100077.91;5054333;28;902;-55
2023/05/05 09:03:19;;;;;;;;;;;;;;;21.45;78.97;100065.91;5054292;28;787;-56
2023/05/05 09:05:46;;;;;;;;;;;;;;;21.58;80.14;100063.69;5054210;28;795;-56
2023/05/05 09:08:13;;;;;;;;;;;;;;;21.61;79.11;100071.16;5054265;28;1024;-55
2023/05/05 09:10:41;;;;;;;;;;;;;;;21.58;76.75;100072.13;5054046;28;1953;-57
2023/05/05 09:13:08;;;;;;;;;;;;;;;21.69;77.33;100063.19;5053998;28;949;-55
2023/05/05 09:15:34;;;;;;;;;;;;;;;21.81;79.97;100063.00;5052763;28;1430;-55
2023/05/05 09:18:01;;;;;;;;;;;;;;;21.14;85.21;100064.03;5053962;28;835;-56
2023/05/05 09:20:37;;;;;;;;;;;;;;;20.26;87.52;100081.34;5053934;28;869;-55
2023/05/05 09:23:09;;;;;;;;;;;;;;;20.29;89.51;100072.81;5054068;28;811;-56
2023/05/05 09:25:36;;;;;;;;;;;;;;;20.39;81.15;100073.59;5053824;28;850;-56
2023/05/05 09:28:10;;;;;;;;;;;;;;;19.70;82.47;100075.50;5053754;28;884;-56
2023/05/05 09:30:37;;;;;;;;;;;;;;;19.29;84.63;100080.19;5053727;28;1973;-55
2023/05/05 09:33:04;;;;;;;;;;;;;;;19.30;83.94;100072.56;5053693;28;865;-56
2023/05/05 09:35:48;;;;;;;;;;;;;;;19.04;84.35;100075.50;5053658;28;884;-56
2023/05/05 09:38:15;;;;;;;;;;;;;;;19.28;83.90;100080.66;5053653;28;842;-55
2023/05/05 10:09:37;;;;;;;;;;;;;;;21.50;73.94;100054.78;6147971;22;1883;-60
2023/05/05 10:12:05;;;;;;;;;;;;;;;20.27;75.92;100057.66;5012544;28;1730;-59
2023/05/05 10:14:31;;;;;;;;;;;;;;;19.96;78.01;100050.06;4995700;28;819;-59
2023/05/05 10:16:59;;;;;;;;;;;;;;;20.73;77.79;100052.94;4995595;28;1412;-59
2023/05/05 10:19:27;;;;;;;;;;;;;;;20.94;73.83;100047.66;5013068;28;949;-59
2023/05/05 10:21:58;;;;;;;;;;;;;;;21.23;73.88;100058.41;5013025;28;950;-58
2023/05/05 10:24:27;;;;;;;;;;;;;;;21.06;73.88;100049.53;5013135;28;877;-59
2023/05/05 10:26:57;;;;;;;;;;;;;;;21.39;73.47;100046.03;5012817;28;1016;-59
2023/05/05 10:29:30;;;;;;;;;;;;;;;21.40;75.10;100034.31;5012818;28;1981;-59
2023/05/05 10:32:03;;;;;;;;;;;;;;;21.65;74.31;100031.63;5012876;28;891;-59
2023/05/05 10:34:44;;;;;;;;;;;;;;;21.86;73.01;100036.25;5012979;28;1206;-59
2023/05/05 10:37:11;;;;;;;;;;;;;;;21.78;75.27;100030.16;5012945;28;814;-59
2023/05/05 10:39:38;;;;;;;;;;;;;;;22.31;75.05;100009.13;5011630;28;865;-59
2023/05/05 10:42:05;;;;;;;;;;;;;;;22.80;72.93;100015.53;5011546;28;908;-58
2023/05/05 10:44:32;;;;;;;;;;;;;;;23.62;73.99;100010.38;5012729;28;807;-57
2023/05/05 10:46:58;;;;;;;;;;;;;;;23.37;69.50;100003.28;5012648;28;934;-57
2023/05/05 10:49:40;;;;;;;;;;;;;;;22.60;64.04;100022.56;5011369;28;1910;-57
2023/05/05 10:52:07;;;;;;;;;;;;;;;21.58;62.79;100013.06;5012598;28;858;-58
2023/05/05 10:54:51;;;;;;;;;;;;;;;20.81;64.01;100014.09;5012564;28;905;-57
2023/05/05 10:57:20;;;;;;;;;;;;;;;20.91;67.21;100006.44;5012713;28;819;-57
2023/05/05 10:59:46;;;;;;;;;;;;;;;21.51;66.22;100004.97;5012721;28;955;-57
2023/05/05 11:02:26;;;;;;;;;;;;;;;21.85;65.03;99994.50;5012459;28;917;-57
2023/05/05 11:05:16;;;;;;;;;;;;;;;21.60;64.10;99991.63;5012443;28;886;-57
2023/05/05 11:07:44;;;;;;;;;;;;;;;21.39;66.00;99999.00;5012320;28;909;-57
2023/05/05 11:10:11;;;;;;;;;;;;;;;20.86;65.98;99998.63;5011970;28;1889;-57
2023/05/05 11:13:01;;;;;;;;;;;;;;;21.40;65.94;99994.16;5012300;28;822;-57
2023/05/05 11:15:29;;;;;;;;;;;;;;;22.02;67.61;99985.22;5005978;28;1801;-57
2023/05/05 11:17:57;;;;;;;;;;;;;;;22.32;66.73;99979.75;5012429;28;968;-57
2023/05/05 11:20:39;;;;;;;;;;;;;;;22.30;65.00;99981.50;5012144;28;894;-57
2023/05/05 11:23:06;;;;;;;;;;;;;;;22.17;63.46;99981.69;5012022;28;867;-57
2023/05/05 11:25:37;;;;;;;;;;;;;;;22.10;63.44;99974.34;5012033;28;826;-57
2023/05/05 11:28:07;;;;;;;;;;;;;;;22.17;62.92;99973.25;5012170;28;819;-57
2023/05/05 11:30:35;;;;;;;;;;;;;;;22.31;62.94;99974.59;5011839;28;1981;-57
2023/05/05 11:33:21;;;;;;;;;;;;;;;22.02;63.04;99964.75;4994257;28;1269;-57
2023/05/05 11:35:59;;;;;;;;;;;;;;;23.80;61.92;99958.59;5012501;28;842;-57
2023/05/05 11:38:44;;;;;;;;;;;;;;;24.91;57.25;99949.19;5011335;28;811;-57
2023/05/05 11:41:11;;;;;;;;;;;;;;;24.48;56.83;99948.97;5011714;28;907;-57
2023/05/05 11:43:41;;;;;;;;;;;;;;;23.07;55.53;99951.75;5011818;28;875;-57
2023/05/05 11:46:13;;;;;;;;;;;;;;;22.75;56.87;99951.41;5011721;28;890;-57
2023/05/05 11:48:51;;;;;;;;;;;;;;;23.38;57.24;99949.19;5011839;28;823;-57
2023/05/05 11:51:18;;;;;;;;;;;;;;;22.08;57.16;99942.31;5011884;28;1951;-57
2023/05/05 11:53:45;;;;;;;;;;;;;;;21.06;59.40;99956.00;5011821;28;819;-56
2023/05/05 11:56:17;;;;;;;;;;;;;;;21.01;59.57;99951.78;5011819;28;898;-55
2023/05/05 11:58:44;;;;;;;;;;;;;;;21.04;60.94;99948.06;5011641;28;922;-57
2023/05/05 12:01:12;;;;;;;;;;;;;;;22.66;58.14;99937.38;5011732;28;851;-56
2023/05/05 12:03:39;;;;;;;;;;;;;;;24.09;54.17;99932.31;5011721;28;829;-56
2023/05/05 12:06:10;;;;;;;;;;;;;;;25.23;52.02;99916.09;5011618;28;933;-57
2023/05/05 12:08:38;;;;;;;;;;;;;;;24.91;47.35;99918.09;4993816;28;1764;-57
2023/05/05 12:11:09;;;;;;;;;;;;;;;24.30;47.13;99907.66;5011219;28;1965;-57
2023/05/05 12:13:36;;;;;;;;;;;;;;;23.44;51.08;99912.63;5011824;28;814;-57
2023/05/05 12:16:09;;;;;;;;;;;;;;;23.22;50.45;99911.00;5011771;28;807;-57
2023/05/05 12:18:37;;;;;;;;;;;;;;;24.62;48.82;99907.78;5011420;28;945;-57
2023/05/05 12:21:14;;;;;;;;;;;;;;;25.70;44.95;99906.66;5011337;28;937;-57
2023/05/05 12:23:41;;;;;;;;;;;;;;;26.73;43.88;99898.09;5011534;28;842;-57
2023/05/05 12:26:22;;;;;;;;;;;;;;;26.76;41.16;99892.16;5011436;28;900;-58
2023/05/05 12:28:49;;;;;;;;;;;;;;;26.26;42.51;99907.72;5011449;28;976;-57
2023/05/05 12:31:16;;;;;;;;;;;;;;;25.73;43.62;99894.31;5011341;28;1914;-58
2023/05/05 12:33:43;;;;;;;;;;;;;;;24.32;43.06;99893.03;5011315;28;893;-57
2023/05/05 12:36:11;;;;;;;;;;;;;;;24.37;44.01;99889.53;5011260;28;946;-58
2023/05/05 12:38:38;;;;;;;;;;;;;;;24.21;44.73;99873.91;4993648;28;791;-58
2023/05/05 12:41:05;;;;;;;;;;;;;;;24.41;45.57;99876.72;5011342;28;890;-58
2023/05/05 12:43:32;;;;;;;;;;;;;;;24.90;43.79;99890.31;5011318;28;843;-57
2023/05/05 12:46:14;;;;;;;;;;;;;;;24.74;42.86;99880.41;5011229;28;946;-57
2023/05/05 12:48:46;;;;;;;;;;;;;;;24.53;42.71;99866.34;4993497;28;1292;-57
2023/05/05 12:51:16;;;;;;;;;;;;;;;24.98;41.53;99878.06;5014011;28;1953;-57
2023/05/05 12:53:44;;;;;;;;;;;;;;;25.48;40.74;99865.63;4997184;28;1278;-57
2023/05/05 12:56:29;;;;;;;;;;;;;;;26.34;40.18;99856.25;5014747;28;800;-58
2023/05/05 12:58:56;;;;;;;;;;;;;;;27.09;38.77;99857.38;5014755;28;839;-58
2023/05/05 13:01:22;;;;;;;;;;;;;;;27.42;36.75;99857.91;5014533;28;950;-58
2023/05/05 13:04:09;;;;;;;;;;;;;;;25.79;36.57;99853.44;5013387;28;1449;-57
2023/05/05 13:06:41;;;;;;;;;;;;;;;24.29;39.39;99857.34;5014361;28;970;-57
2023/05/05 13:09:11;;;;;;;;;;;;;;;24.58;39.11;99850.72;5013308;28;1025;-58
2023/05/05 13:11:38;;;;;;;;;;;;;;;25.37;38.09;99854.22;5014248;28;1376;-58
2023/05/05 13:14:08;;;;;;;;;;;;;;;24.68;37.77;99854.16;5014476;28;795;-57
2023/05/05 13:16:35;;;;;;;;;;;;;;;23.07;39.98;99844.66;5014525;28;953;-57
2023/05/05 13:19:02;;;;;;;;;;;;;;;22.41;41.38;99852.94;5014687;28;834;-57
2023/05/05 13:21:28;;;;;;;;;;;;;;;22.46;42.16;99850.72;5014844;28;858;-57
2023/05/05 13:23:58;;;;;;;;;;;;;;;23.62;40.90;99835.47;5014868;28;929;-57
2023/05/05 13:26:25;;;;;;;;;;;;;;;24.60;39.78;99825.56;4996536;28;903;-57
2023/05/05 13:28:52;;;;;;;;;;;;;;;24.93;39.71;99825.09;5014055;28;927;-57
2023/05/05 13:31:19;;;;;;;;;;;;;;;25.00;39.53;99829.50;5014017;28;1981;-57
2023/05/05 13:33:45;;;;;;;;;;;;;;;24.89;39.54;99823.78;5014040;28;870;-56
2023/05/05 13:36:12;;;;;;;;;;;;;;;23.92;39.96;99818.38;5014075;28;905;-56
2023/05/05 13:38:40;;;;;;;;;;;;;;;22.90;42.13;99816.94;5014033;28;882;-57
2023/05/05 13:41:06;;;;;;;;;;;;;;;23.74;42.66;99813.78;5014018;28;906;-57
2023/05/05 13:43:33;;;;;;;;;;;;;;;24.12;41.48;99815.56;5013911;28;819;-57
2023/05/05 13:46:00;;;;;;;;;;;;;;;23.46;41.86;99791.63;5014097;28;855;-57